Time;durP1;ratioP1;P1;durP2;ratioP2;P2;SDS_P1;SDS_P2;PMS_P1;PMS_P2;Temp;Humidity;BMP_temperature;BMP_pressure;BME280_temperature;BME280_humidity;BME280_pressure;Samples;Min_cycle;Max_cycle;Signal;HPM_P1;HPM_P2
2021/09/22 00:01:45;;;;;;;;;;;;;;;6.71;83.04;99518.92;1725510;82;21613;-67
2021/09/22 00:04:13;;;;;;;3.52;1.60;;;;;;;6.75;82.88;99504.36;1710869;82;20113;-67
2021/09/22 00:06:40;;;;;;;2.95;1.72;;;;;;;6.67;83.03;99503.44;1708729;82;20995;-68
2021/09/22 00:09:06;;;;;;;3.25;1.75;;;;;;;6.66;83.17;99497.20;1699118;82;21012;-68
2021/09/22 00:11:34;;;;;;;3.22;1.55;;;;;;;6.70;83.00;99495.64;1732351;82;21016;-68
2021/09/22 00:14:01;;;;;;;2.75;1.25;;;;;;;6.75;82.94;99494.36;1731448;83;21036;-68
2021/09/22 00:16:29;;;;;;;3.00;1.42;;;;;;;6.80;82.86;99489.55;1725920;82;21481;-68
2021/09/22 00:18:56;;;;;;;1.92;1.40;;;;;;;6.80;82.86;99489.55;1708925;82;21622;-67
2021/09/22 00:21:24;;;;;;;2.37;1.50;;;;;;;6.78;82.83;99480.33;1720975;82;21056;-67
2021/09/22 00:23:52;;;;;;;5.00;1.55;;;;;;;6.81;82.73;99481.70;1731972;82;21584;-67
2021/09/22 00:26:20;;;;;;;2.50;1.60;;;;;;;6.84;82.55;99491.47;1707336;83;21048;-68
2021/09/22 00:28:46;;;;;;;2.45;1.60;;;;;;;6.84;82.25;99486.59;1707541;83;21558;-67
2021/09/22 00:31:13;;;;;;;3.47;1.45;;;;;;;6.76;82.36;99483.83;1712115;82;21063;-68
2021/09/22 00:33:40;;;;;;;2.15;1.40;;;;;;;6.74;82.40;99482.42;1710409;82;21067;-68
2021/09/22 00:36:06;;;;;;;;;;;;;;;6.75;82.24;99490.30;1736429;82;21083;-67
2021/09/22 00:38:33;;;;;;;3.30;1.57;;;;;;;6.79;82.13;99491.97;1707111;83;20122;-65
2021/09/22 00:41:00;;;;;;;2.47;1.30;;;;;;;6.68;82.43;99479.39;1711684;82;21598;-67
2021/09/22 00:43:26;;;;;;;3.02;1.35;;;;;;;6.70;82.58;99478.05;1723065;83;21031;-67
2021/09/22 00:45:53;;;;;;;3.17;1.70;;;;;;;6.76;82.32;99483.83;1708021;82;21083;-66
2021/09/22 00:48:21;;;;;;;1.87;1.30;;;;;;;6.74;82.33;99479.72;1732030;82;21059;-68
2021/09/22 00:50:51;;;;;;;1.98;1.42;;;;;;;6.73;82.39;99472.70;1727143;82;21601;-68
2021/09/22 00:53:17;;;;;;;;;;;;;;;6.74;82.09;99468.37;1717059;81;21047;-67
2021/09/22 00:55:45;;;;;;;2.17;1.40;;;;;;;6.70;82.19;99469.12;1742330;81;20158;-67
2021/09/22 00:58:12;;;;;;;3.70;1.57;;;;;;;6.64;82.49;99469.61;1758953;81;21541;-67
2021/09/22 01:00:38;;;;;;;;;;;;;;;6.69;82.28;99466.16;1733262;81;21051;-67
2021/09/22 01:03:05;;;;;;;2.10;1.15;;;;;;;6.71;82.08;99473.47;1754097;81;20098;-66
2021/09/22 01:05:32;;;;;;;;;;;;;;;6.68;82.19;99465.86;1710690;83;21082;-68
2021/09/22 01:08:00;;;;;;;1.90;1.32;;;;;;;6.71;82.06;99467.53;1739346;81;20133;-68
2021/09/22 01:10:26;;;;;;;;;;;;;;;6.60;82.33;99464.41;1746071;81;21011;-68
2021/09/22 01:12:53;;;;;;;2.90;1.32;;;;;;;6.60;82.29;99460.36;1730734;81;20462;-68
2021/09/22 01:15:38;;;;;;;1.90;1.50;;;;;;;6.59;82.18;99457.92;1695013;84;21052;-68
2021/09/22 01:18:10;;;;;;;2.60;1.42;;;;;;;6.57;82.13;99452.75;1723086;82;21100;-67
2021/09/22 01:20:33;;;;;;;2.02;1.40;;;;;;;6.56;82.06;99455.70;1734419;82;21114;-68
2021/09/22 01:23:04;;;;;;;2.20;1.00;;;;;;;6.59;82.01;99456.01;1687614;84;21081;-68
2021/09/22 01:25:35;;;;;;;3.17;1.80;;;;;;;6.60;81.93;99455.48;1708408;82;21568;-68
2021/09/22 01:28:04;;;;;;;2.55;1.60;;;;;;;6.57;81.93;99451.94;1675902;84;21035;-67
2021/09/22 01:30:33;;;;;;;2.17;1.47;;;;;;;6.55;82.08;99453.55;1674443;85;21145;-68
2021/09/22 01:33:03;;;;;;;2.05;1.30;;;;;;;6.59;82.05;99455.22;1712214;82;21496;-68
2021/09/22 01:35:42;;;;;;;2.02;1.40;;;;;;;6.62;82.01;99452.00;1724841;82;21440;-68
2021/09/22 01:38:18;;;;;;;2.80;1.95;;;;;;;6.58;82.18;99446.28;1711154;82;21008;-67
2021/09/22 01:40:57;;;;;;;1.57;1.05;;;;;;;6.60;82.32;99446.83;1733526;82;21051;-67
2021/09/22 01:43:24;;;;;;;1.65;1.15;;;;;;;6.67;82.22;99452.87;1708830;82;21025;-67
2021/09/22 01:45:53;;;;;;;1.20;1.00;;;;;;;;;;1718730;82;21045;-67
2021/09/22 01:48:19;;;;;;;3.08;1.30;;;;;;;6.65;82.14;99448.79;1719091;82;21506;-67
2021/09/22 01:50:49;;;;;;;1.75;1.17;;;;;;;6.64;82.05;99451.20;1709290;83;21591;-68
2021/09/22 01:53:17;;;;;;;2.72;1.37;;;;;;;6.63;81.66;99444.97;1737119;82;21015;-67
2021/09/22 01:55:44;;;;;;;3.10;1.35;;;;;;;6.57;81.66;99445.17;1723047;83;21137;-68
2021/09/22 01:58:13;;;;;;;1.80;1.15;;;;;;;6.54;81.78;99445.15;1722232;83;21043;-67
2021/09/22 02:00:44;;;;;;;1.92;1.37;;;;;;;6.57;81.67;99445.17;1717327;83;21047;-68
2021/09/22 02:03:14;;;;;;;2.67;1.25;;;;;;;6.62;81.67;99452.00;1720233;83;21042;-66
2021/09/22 02:05:44;;;;;;;3.22;1.55;;;;;;;6.64;81.64;99453.38;1712788;83;21652;-68
2021/09/22 02:08:19;;;;;;;2.70;1.30;;;;;;;6.59;81.71;99445.75;1706085;83;20995;-67
2021/09/22 02:10:47;;;;;;;3.12;1.27;;;;;;;6.59;81.79;99450.59;1719535;83;21067;-67
2021/09/22 02:13:15;;;;;;;3.67;1.60;;;;;;;6.63;81.63;99449.03;1699543;83;21050;-67
2021/09/22 02:15:42;;;;;;;2.85;1.62;;;;;;;6.69;81.47;99443.16;1708703;83;21603;-68
2021/09/22 02:18:14;;;;;;;2.35;1.30;;;;;;;6.67;81.40;99447.98;1653311;84;21087;-67
2021/09/22 02:20:43;;;;;;;1.62;1.17;;;;;;;6.60;81.34;99447.36;1685093;84;21027;-67
2021/09/22 02:23:21;;;;;;;2.25;1.27;;;;;;;6.59;81.31;99447.89;1717101;82;21021;-67
2021/09/22 02:25:50;;;;;;;2.55;1.50;;;;;;;6.62;81.15;99446.59;1708897;83;21657;-66
2021/09/22 02:28:18;;;;;;;2.75;1.55;;;;;;;6.60;81.19;99443.31;1721545;82;20972;-67
2021/09/22 02:30:46;;;;;;;2.35;1.25;;;;;;;6.56;81.39;99444.34;1734567;82;21055;-68
2021/09/22 02:33:13;;;;;;;1.77;1.22;;;;;;;6.57;81.42;99443.81;1723150;82;21451;-68
2021/09/22 02:35:40;;;;;;;2.92;1.50;;;;;;;6.63;81.31;99450.91;1672567;84;21115;-67
2021/09/22 02:38:18;;;;;;;2.62;1.82;;;;;;;6.65;81.07;99446.08;1717760;82;21605;-66
2021/09/22 02:40:47;;;;;;;2.42;1.42;;;;;;;6.56;81.25;99453.81;1716042;82;21597;-66
2021/09/22 02:43:14;;;;;;;2.10;1.50;;;;;;;6.55;81.42;99448.14;1704105;83;21012;-68
2021/09/22 02:45:41;;;;;;;;;;;;;;;6.63;81.38;99448.20;1727739;82;21063;-66
2021/09/22 02:48:09;;;;;;;3.90;1.37;;;;;;;6.67;81.28;99450.69;1716893;82;20416;-67
2021/09/22 02:50:38;;;;;;;2.90;1.40;;;;;;;6.65;81.43;99447.44;1728926;82;21067;-67
2021/09/22 02:53:05;;;;;;;;;;;;;;;6.63;81.66;99444.15;1737814;82;20972;-67
2021/09/22 02:55:31;;;;;;;2.92;1.80;;;;;;;6.67;81.67;99442.58;1728042;83;20123;-67
2021/09/22 02:57:57;;;;;;;3.35;1.30;;;;;;;6.68;81.63;99447.75;1705244;84;21045;-68
2021/09/22 03:00:24;;;;;;;2.30;1.42;;;;;;;6.72;81.48;99442.12;1697849;83;21119;-67
2021/09/22 03:02:52;;;;;;;3.72;1.40;;;;;;;6.73;81.41;99441.02;1705235;83;21040;-68
2021/09/22 03:05:19;;;;;;;4.12;1.80;;;;;;;6.70;81.55;99444.24;1720157;83;21706;-67
2021/09/22 03:07:46;;;;;;;3.12;1.45;;;;;;;6.71;81.54;99441.00;1666557;85;20988;-68
2021/09/22 03:10:14;;;;;;;2.92;1.55;;;;;;;6.74;81.32;99444.02;1712085;82;21103;-67
2021/09/22 03:12:40;;;;;;;;;;;;;;;6.73;81.02;99436.17;1720844;83;21058;-67
2021/09/22 03:15:08;;;;;;;2.15;1.35;;;;;;;6.68;81.21;99434.75;1700471;83;20110;-67
2021/09/22 03:17:35;;;;;;;2.52;1.32;;;;;;;6.61;81.37;99437.66;1685435;84;21010;-68
2021/09/22 03:20:04;;;;;;;2.42;1.50;;;;;;;6.64;81.30;99437.68;1678461;84;21550;-68
2021/09/22 03:22:31;;;;;;;2.20;1.32;;;;;;;6.67;81.22;99435.28;1707924;83;21011;-67
2021/09/22 03:25:06;;;;;;;2.60;1.70;;;;;;;6.64;81.12;99430.91;1708754;83;21174;-67
2021/09/22 03:27:32;;;;;;;2.67;1.40;;;;;;;6.56;81.28;99432.71;1716610;82;21024;-67
2021/09/22 03:29:59;;;;;;;;;;;;;;;6.55;81.33;99437.86;1733692;83;21075;-67
2021/09/22 03:32:26;;;;;;;2.75;1.67;;;;;;;6.56;81.25;99436.23;1716684;83;20119;-66
2021/09/22 03:34:54;;;;;;;2.12;1.60;;;;;;;6.46;81.58;99438.30;1686023;85;21086;-67
2021/09/22 03:37:20;;;;;;;4.03;1.25;;;;;;;6.45;81.60;99438.53;1714220;82;21486;-66
2021/09/22 03:39:47;;;;;;;2.45;1.42;;;;;;;6.48;81.61;99438.84;1682868;85;21142;-67
2021/09/22 03:42:13;;;;;;;3.90;1.75;;;;;;;6.52;81.67;99436.45;1698399;84;21624;-68
2021/09/22 03:44:39;;;;;;;;;;;;;;;6.60;81.67;99439.25;1688562;83;21028;-67
2021/09/22 03:47:06;;;;;;;3.80;1.90;;;;;;;6.62;81.50;99433.08;1722211;83;20138;-68
2021/09/22 03:49:33;;;;;;;3.40;2.17;;;;;;;6.48;81.83;99438.84;1715651;83;21068;-67
2021/09/22 03:52:01;;;;;;;2.83;1.90;;;;;;;6.50;81.97;99436.72;1686876;85;21101;-67
2021/09/22 03:54:27;;;;;;;4.03;1.85;;;;;;;6.59;81.77;99441.70;1714171;82;21073;-67
2021/09/22 03:56:56;;;;;;;3.60;2.25;;;;;;;6.58;81.59;99438.70;1707287;83;21484;-67
2021/09/22 03:59:23;;;;;;;7.15;2.40;;;;;;;6.54;81.71;99438.39;1710200;83;21131;-67
2021/09/22 04:01:50;;;;;;;5.10;1.87;;;;;;;6.59;81.69;99441.13;1717855;83;21004;-68
2021/09/22 04:04:18;;;;;;;2.50;1.77;;;;;;;6.66;81.52;99434.20;1708253;83;21107;-67
2021/09/22 04:06:44;;;;;;;4.20;1.75;;;;;;;6.72;81.47;99436.70;1704558;83;21048;-68
2021/09/22 04:09:14;;;;;;;2.95;2.00;;;;;;;6.71;81.47;99436.95;1674501;83;21103;-68
2021/09/22 04:11:41;;;;;;;2.98;2.12;;;;;;;6.66;81.67;99432.85;1722613;82;20928;-67
2021/09/22 04:14:08;;;;;;;2.92;2.12;;;;;;;6.65;81.64;99437.44;1714406;82;21059;-67
2021/09/22 04:16:36;;;;;;;8.13;2.65;;;;;;;6.66;81.32;99435.55;1708665;82;21445;-68
2021/09/22 04:19:04;;;;;;;2.72;1.90;;;;;;;6.60;81.48;99436.55;1718641;82;21034;-67
2021/09/22 04:21:33;;;;;;;3.25;2.10;;;;;;;6.57;81.58;99436.52;1726527;82;21393;-68
2021/09/22 04:24:01;;;;;;;3.33;2.22;;;;;;;6.65;81.48;99435.27;1708075;82;21002;-67
2021/09/22 04:26:27;;;;;;;4.40;2.20;;;;;;;6.63;81.44;99431.45;1705816;82;21031;-67
2021/09/22 04:28:56;;;;;;;4.08;2.00;;;;;;;6.59;81.61;99438.43;1729332;82;21028;-68
2021/09/22 04:31:42;;;;;;;4.67;2.52;;;;;;;6.56;81.72;99438.12;1731514;82;20970;-68
2021/09/22 04:34:27;;;;;;;3.00;1.90;;;;;;;6.63;81.74;99436.03;1723362;82;21091;-68
2021/09/22 04:37:13;;;;;;;5.08;2.50;;;;;;;6.66;81.76;99432.85;1724592;82;20927;-68
2021/09/22 04:39:58;;;;;;;3.15;2.10;;;;;;;6.61;81.95;99430.89;1718127;82;21047;-68
2021/09/22 04:42:43;;;;;;;3.70;2.37;;;;;;;6.58;82.01;99430.06;1715368;82;21048;-67
2021/09/22 04:45:29;;;;;;;3.15;2.17;;;;;;;6.65;82.02;99432.56;1713241;82;21059;-67
2021/09/22 04:48:16;;;;;;;4.28;2.17;;;;;;;6.69;82.00;99432.34;1726837;82;20995;-67
2021/09/22 04:50:44;;;;;;;4.30;2.50;;;;;;;6.69;82.02;99435.05;1668805;85;21079;-68
2021/09/22 04:53:30;;;;;;;4.25;2.62;;;;;;;6.65;82.15;99438.80;1700384;82;20991;-68
2021/09/22 04:56:15;;;;;;;4.20;2.20;;;;;;;6.68;82.22;99428.81;1716988;82;21629;-67
2021/09/22 04:59:02;;;;;;;4.45;2.55;;;;;;;6.71;81.93;99440.48;1717047;82;21374;-67
2021/09/22 05:01:47;;;;;;;4.40;2.35;;;;;;;6.65;82.04;99431.20;1729852;82;20992;-67
2021/09/22 05:04:32;;;;;;;3.65;2.27;;;;;;;6.66;82.06;99434.20;1731795;82;21055;-67
2021/09/22 05:07:20;;;;;;;4.30;2.33;;;;;;;6.70;81.95;99432.07;1729981;82;20992;-67
2021/09/22 05:10:06;;;;;;;4.53;2.47;;;;;;;6.70;82.03;99440.71;1726460;82;21581;-68
2021/09/22 05:12:50;;;;;;;3.47;2.45;;;;;;;6.62;82.34;99438.48;1718494;82;21031;-67
2021/09/22 05:15:35;;;;;;;4.78;2.42;;;;;;;6.62;82.40;99442.01;1731636;83;21063;-67
2021/09/22 05:18:20;;;;;;;3.12;2.02;;;;;;;6.66;82.39;99445.81;1731668;83;21019;-65
2021/09/22 05:21:07;;;;;;;7.60;3.40;;;;;;;6.71;82.41;99443.18;1700164;82;21036;-65
2021/09/22 05:23:52;;;;;;;6.62;3.98;;;;;;;6.73;82.50;99445.64;1707133;82;21040;-65
2021/09/22 05:26:37;;;;;;;7.37;4.20;;;;;;;6.70;82.67;99447.48;1735900;82;21531;-64
2021/09/22 05:29:24;;;;;;;7.67;4.40;;;;;;;6.71;82.62;99441.83;1735836;82;22830;-65
2021/09/22 05:32:08;;;;;;;14.85;5.30;;;;;;;6.77;82.57;99446.21;1725607;82;21016;-65
2021/09/22 05:34:55;;;;;;;12.13;5.20;;;;;;;6.77;82.46;99444.86;1727222;82;21550;-66
2021/09/22 05:37:41;;;;;;;6.72;4.10;;;;;;;6.70;82.54;99444.77;1660845;86;21015;-65
2021/09/22 05:40:27;;;;;;;4.47;2.60;;;;;;;6.69;82.76;99445.86;1660413;86;21055;-65
2021/09/22 05:43:11;;;;;;;4.62;3.00;;;;;;;6.74;82.44;99441.84;1706116;82;20987;-65
2021/09/22 05:45:56;;;;;;;4.80;3.17;;;;;;;6.71;82.40;99446.41;1735687;82;21056;-66
2021/09/22 05:48:40;;;;;;;3.80;2.67;;;;;;;6.75;82.55;99437.55;1736100;82;21606;-66
2021/09/22 05:51:25;;;;;;;5.35;2.90;;;;;;;6.78;82.29;99448.39;1723140;82;21047;-66
2021/09/22 05:54:12;;;;;;;7.33;3.50;;;;;;;6.76;82.25;99448.66;1729244;81;21624;-65
2021/09/22 05:56:57;;;;;;;8.40;3.10;;;;;;;6.78;82.30;99444.33;1731300;83;21031;-65
2021/09/22 05:59:41;;;;;;;4.17;2.60;;;;;;;6.78;82.20;99441.09;1726958;83;21037;-66
2021/09/22 06:02:26;;;;;;;6.03;3.17;;;;;;;6.80;82.28;99445.70;1716143;83;20986;-66
2021/09/22 06:05:13;;;;;;;4.37;2.50;;;;;;;6.76;82.34;99447.84;1685424;84;21492;-65
2021/09/22 06:07:59;;;;;;;5.55;3.27;;;;;;;6.75;82.39;99437.55;1707551;83;20991;-65
2021/09/22 06:10:40;;;;;;;4.97;2.83;;;;;;;6.82;82.24;99450.88;1680206;84;21034;-67
2021/09/22 06:13:10;;;;;;;4.03;2.60;;;;;;;6.79;82.36;99449.50;1714536;83;20952;-67
2021/09/22 06:15:37;;;;;;;;;;;;;;;6.83;82.21;99446.57;1721953;83;21589;-68
2021/09/22 06:18:03;;;;;;;3.30;2.47;;;;;;;6.88;82.15;99441.73;1704923;81;20111;-67
2021/09/22 06:20:29;;;;;;;7.60;3.02;;;;;;;6.84;82.47;99444.66;1705487;83;21062;-67
2021/09/22 06:22:56;;;;;;;3.30;2.17;;;;;;;6.88;82.44;99443.08;1728003;83;21003;-67
2021/09/22 06:25:23;;;;;;;5.47;2.90;;;;;;;6.98;82.32;99448.59;1729435;82;21093;-68
2021/09/22 06:27:49;;;;;;;3.40;2.47;;;;;;;7.04;82.29;99448.12;1710344;83;20983;-71
2021/09/22 06:30:16;;;;;;;;;;;;;;;7.09;82.24;99440.86;1712760;83;21079;-67
2021/09/22 06:32:43;;;;;;;5.60;2.40;;;;;;;7.10;81.65;99442.50;1704847;83;20101;-68
2021/09/22 06:35:27;;;;;;;3.90;2.52;;;;;;;6.98;81.95;99445.36;1703623;83;21048;-68
2021/09/22 06:37:55;;;;;;;3.33;2.22;;;;;;;7.05;82.24;99446.50;1721042;82;21011;-68
2021/09/22 06:40:24;;;;;;;4.95;2.47;;;;;;;7.20;82.24;99450.72;1704594;83;21110;-67
2021/09/22 06:42:52;;;;;;;5.45;2.40;;;;;;;7.35;82.19;99450.86;1716865;83;21057;-68
2021/09/22 06:45:20;;;;;;;3.55;1.98;;;;;;;7.48;82.01;99450.42;1730082;82;21593;-68
2021/09/22 06:47:48;;;;;;;2.17;1.47;;;;;;;7.56;81.74;99451.84;1732269;83;21043;-67
2021/09/22 06:50:15;;;;;;;4.65;2.05;;;;;;;7.49;80.90;99448.00;1732169;82;21071;-67
2021/09/22 06:52:43;;;;;;;3.22;1.90;;;;;;;7.47;80.48;99450.13;1730875;82;21087;-68
2021/09/22 06:55:10;;;;;;;2.40;1.80;;;;;;;7.47;80.35;99437.95;1707019;83;21094;-68
2021/09/22 06:57:37;;;;;;;2.58;1.87;;;;;;;7.50;80.09;99448.30;1695303;84;20995;-67
2021/09/22 07:00:06;;;;;;;3.95;1.82;;;;;;;7.43;80.01;99443.63;1724676;82;21079;-67
2021/09/22 07:02:32;;;;;;;3.20;1.70;;;;;;;7.40;80.14;99444.69;1714815;82;20983;-69
2021/09/22 07:04:59;;;;;;;2.87;1.65;;;;;;;7.45;79.93;99445.53;1716174;83;21074;-69
2021/09/22 07:07:25;;;;;;;;;;;;;;;7.45;79.79;99436.05;1727632;82;21475;-68
2021/09/22 07:09:52;;;;;;;4.40;1.98;;;;;;;7.42;79.66;99445.23;1727477;82;20392;-72
2021/09/22 07:12:20;;;;;;;3.30;1.85;;;;;;;7.38;79.59;99445.45;1710941;82;20996;-68
2021/09/22 07:14:48;;;;;;;2.72;1.52;;;;;;;7.41;79.39;99440.34;1707565;84;21752;-67
2021/09/22 07:17:18;;;;;;;2.65;1.80;;;;;;;7.39;79.40;99444.39;1713352;82;21016;-68
2021/09/22 07:19:46;;;;;;;2.70;1.40;;;;;;;7.40;79.65;99444.12;1708171;84;21135;-69
2021/09/22 07:22:14;;;;;;;1.85;1.30;;;;;;;7.50;79.68;99433.92;1712951;82;21016;-67
2021/09/22 07:24:42;;;;;;;2.10;1.30;;;;;;;7.57;79.04;99444.01;1723270;82;21007;-68
2021/09/22 07:27:08;;;;;;;4.25;1.20;;;;;;;7.56;79.05;99457.27;1718473;82;21000;-67
2021/09/22 07:29:36;;;;;;;2.35;1.20;;;;;;;7.50;78.77;99452.35;1711776;82;21008;-68
2021/09/22 07:32:06;;;;;;;1.67;1.12;;;;;;;7.52;78.55;99450.72;1729992;82;21077;-68
2021/09/22 07:34:34;;;;;;;2.65;1.75;;;;;;;7.53;78.56;99451.02;1735606;82;21106;-68
2021/09/22 07:37:06;;;;;;;3.08;1.77;;;;;;;7.55;78.91;99454.27;1728164;82;21043;-68
2021/09/22 07:39:29;;;;;;;2.87;1.52;;;;;;;7.60;78.67;99454.32;1723373;82;21578;-68
2021/09/22 07:41:56;;;;;;;2.37;1.70;;;;;;;7.61;78.22;99449.72;1726751;82;21075;-67
2021/09/22 07:44:22;;;;;;;;;;;;;;;7.56;78.07;99446.42;1728879;82;21152;-68
2021/09/22 07:46:49;;;;;;;2.73;1.63;;;;;;;7.60;78.20;99451.61;1724608;82;20119;-67
2021/09/22 07:49:17;;;;;;;3.77;2.27;;;;;;;7.65;78.31;99450.84;1737308;82;21039;-67
2021/09/22 07:51:45;;;;;;;2.47;1.65;;;;;;;7.72;78.08;99446.02;1737331;82;21071;-66
2021/09/22 07:54:11;;;;;;;3.60;1.85;;;;;;;7.75;78.16;99448.20;1730834;82;21565;-66
2021/09/22 07:56:39;;;;;;;2.67;1.77;;;;;;;7.79;77.70;99450.67;1729595;82;21048;-67
2021/09/22 07:59:05;;;;;;;3.08;1.90;;;;;;;7.78;77.10;99451.73;1737008;82;21552;-66
2021/09/22 08:01:32;;;;;;;4.10;2.10;;;;;;;7.72;77.11;99454.14;1735650;82;21046;-66
2021/09/22 08:04:00;;;;;;;4.42;2.25;;;;;;;7.63;77.17;99449.73;1736743;82;20968;-67
2021/09/22 08:06:26;;;;;;;3.77;2.20;;;;;;;7.63;77.23;99454.33;1736498;82;21072;-67
2021/09/22 08:08:54;;;;;;;3.50;2.17;;;;;;;7.59;76.80;99458.09;1736574;82;21032;-67
2021/09/22 08:11:20;;;;;;;7.35;3.20;;;;;;;7.48;76.96;99448.25;1736501;82;21059;-67
2021/09/22 08:13:48;;;;;;;4.58;2.62;;;;;;;7.45;76.98;99455.01;1721059;82;21124;-67
2021/09/22 08:16:15;;;;;;;6.12;2.40;;;;;;;7.47;77.03;99450.13;1734881;82;21091;-67
2021/09/22 08:18:45;;;;;;;4.50;2.67;;;;;;;7.50;77.07;99459.13;1707515;84;21051;-67
2021/09/22 08:21:10;;;;;;;3.12;1.90;;;;;;;7.46;77.35;99459.36;1706936;84;21143;-66
2021/09/22 08:23:37;;;;;;;3.15;1.92;;;;;;;7.48;77.57;99454.48;1707295;84;21083;-66
2021/09/22 08:26:03;;;;;;;2.27;1.77;;;;;;;7.61;77.76;99456.49;1707290;84;21509;-65
2021/09/22 08:28:30;;;;;;;3.25;1.75;;;;;;;7.72;77.69;99449.52;1712577;82;21043;-65
2021/09/22 08:30:56;;;;;;;3.08;1.82;;;;;;;7.77;77.55;99453.63;1704263;82;21086;-65
2021/09/22 08:33:23;;;;;;;3.50;2.00;;;;;;;7.86;77.54;99443.95;1736777;82;21051;-66
2021/09/22 08:35:49;;;;;;;4.35;1.98;;;;;;;8.05;77.53;99441.61;1735105;82;21534;-65
2021/09/22 08:38:16;;;;;;;4.17;2.33;;;;;;;8.17;77.11;99446.84;1731859;83;21027;-66
2021/09/22 08:40:43;;;;;;;3.02;2.12;;;;;;;8.16;76.35;99447.91;1731856;82;21083;-66
2021/09/22 08:43:12;;;;;;;2.67;2.00;;;;;;;8.09;76.05;99448.14;1699722;84;21057;-65
2021/09/22 08:45:39;;;;;;;3.27;1.80;;;;;;;8.12;75.88;99441.38;1721272;83;21126;-65
2021/09/22 08:48:08;;;;;;;3.62;2.17;;;;;;;8.11;75.61;99441.94;1699901;84;21068;-65
2021/09/22 08:50:35;;;;;;;3.00;1.92;;;;;;;8.05;75.40;99441.61;1699801;84;21590;-65
2021/09/22 08:53:01;;;;;;;;;;;;;;;8.02;75.42;99447.56;1702335;84;21037;-66
2021/09/22 08:55:29;;;;;;;5.25;2.80;;;;;;;8.04;75.40;99443.25;1710671;83;20111;-65
2021/09/22 08:57:56;;;;;;;2.72;2.00;;;;;;;7.95;75.71;99451.86;1732031;83;21088;-66
2021/09/22 09:00:22;;;;;;;4.80;2.22;;;;;;;7.92;75.70;99451.56;1731984;82;21321;-65
2021/09/22 09:02:48;;;;;;;3.58;2.17;;;;;;;7.96;75.31;99449.44;1732117;83;21023;-65
2021/09/22 09:05:18;;;;;;;3.25;2.17;;;;;;;7.92;75.19;99440.73;1726639;82;21614;-65
2021/09/22 09:07:55;;;;;;;2.92;2.10;;;;;;;7.87;75.32;99442.03;1729254;83;21026;-64
2021/09/22 09:10:29;;;;;;;4.17;2.10;;;;;;;7.93;75.53;99443.19;1731863;82;21637;-65
2021/09/22 09:12:59;;;;;;;4.80;2.02;;;;;;;7.96;75.42;99435.06;1732046;83;20983;-65
2021/09/22 09:15:37;;;;;;;4.87;2.20;;;;;;;7.97;75.48;99441.56;1731801;82;21094;-65
2021/09/22 09:18:18;;;;;;;4.67;2.20;;;;;;;7.99;75.82;99442.13;1732056;82;20975;-65
2021/09/22 09:20:50;;;;;;;3.33;1.87;;;;;;;8.10;75.63;99430.81;1731781;82;21063;-65
2021/09/22 09:23:19;;;;;;;3.00;1.80;;;;;;;8.23;75.60;99430.33;1731921;82;21437;-65
2021/09/22 09:26:02;;;;;;;2.92;2.22;;;;;;;8.38;75.62;99433.15;1729840;83;21081;-65
2021/09/22 09:28:37;;;;;;;3.17;2.10;;;;;;;8.44;74.79;99428.02;1732173;82;20983;-65
2021/09/22 09:31:10;;;;;;;3.80;2.22;;;;;;;8.47;74.34;99428.02;1731652;82;21054;-65
2021/09/22 09:33:46;;;;;;;2.37;1.60;;;;;;;8.48;73.84;99431.83;1731289;82;20936;-66
2021/09/22 09:36:36;;;;;;;4.17;1.70;;;;;;;8.49;73.87;99429.94;1731722;82;21082;-66
2021/09/22 09:39:19;;;;;;;3.22;1.90;;;;;;;8.40;72.94;99437.75;1699400;83;21022;-66
2021/09/22 09:41:51;;;;;;;3.22;2.20;;;;;;;8.23;73.51;99435.75;1721368;83;21087;-67
2021/09/22 09:44:22;;;;;;;3.90;2.15;;;;;;;8.23;73.97;99431.69;1707029;83;20972;-66
2021/09/22 09:46:50;;;;;;;2.87;1.72;;;;;;;8.32;74.07;99428.80;1692750;84;21078;-66
2021/09/22 09:49:20;;;;;;;4.83;3.05;;;;;;;8.36;73.76;99430.44;1693105;84;21043;-66
2021/09/22 09:51:49;;;;;;;3.42;2.47;;;;;;;8.36;73.69;99429.87;1693477;83;21043;-65
2021/09/22 09:54:33;;;;;;;4.67;2.47;;;;;;;8.38;73.63;99425.02;1671631;86;20998;-65
2021/09/22 09:57:17;;;;;;;2.52;1.65;;;;;;;8.45;73.77;99422.88;1697437;84;21048;-66
2021/09/22 09:59:48;;;;;;;3.10;1.75;;;;;;;8.56;73.26;99430.51;1707556;84;21052;-66
2021/09/22 10:02:32;;;;;;;3.10;1.32;;;;;;;8.50;72.71;99427.51;1637969;85;21071;-66
2021/09/22 10:05:00;;;;;;;3.65;1.30;;;;;;;8.46;72.63;99429.12;1691744;85;21047;-66
2021/09/22 10:07:27;;;;;;;4.12;1.27;;;;;;;8.50;72.32;99428.86;1691665;85;21059;-66
2021/09/22 10:10:47;;;;;;;2.83;1.57;;;;;;;8.55;71.86;99432.12;1785465;79;23344;-66
2021/09/22 10:13:17;;;;;;;2.55;1.25;;;;;;;8.46;71.80;99428.58;1752841;82;21050;-66
2021/09/22 10:15:45;;;;;;;1.60;1.02;;;;;;;8.51;72.04;99430.48;1752625;82;21079;-67
2021/09/22 10:18:13;;;;;;;4.78;2.85;;;;;;;8.63;72.04;99428.36;1744424;81;21025;-66
2021/09/22 10:20:43;;;;;;;5.85;2.67;;;;;;;8.73;72.04;99431.10;1722994;83;21051;-66
2021/09/22 10:23:11;;;;;;;2.45;1.67;;;;;;;8.84;72.73;99425.98;1723180;83;21023;-66
2021/09/22 10:25:37;;;;;;;2.80;1.52;;;;;;;8.95;72.35;99429.00;1722990;83;21648;-66
2021/09/22 10:28:04;;;;;;;3.12;1.50;;;;;;;9.06;72.08;99431.19;1705590;83;21058;-66
2021/09/22 10:30:43;;;;;;;2.20;1.55;;;;;;;9.15;71.25;99440.95;1707354;84;21478;-66
2021/09/22 10:33:27;;;;;;;3.10;1.60;;;;;;;9.07;70.86;99438.23;1707708;84;21572;-66
2021/09/22 10:35:58;;;;;;;2.77;1.60;;;;;;;8.94;70.70;99436.03;1707678;84;21056;-66
2021/09/22 10:38:33;;;;;;;2.85;1.65;;;;;;;8.81;70.99;99431.13;1736929;82;20959;-66
2021/09/22 10:41:01;;;;;;;4.92;1.72;;;;;;;8.80;70.81;99428.13;1738247;81;21027;-66
2021/09/22 10:43:36;;;;;;;3.02;1.52;;;;;;;8.71;70.66;99427.85;1722846;83;21530;-66
2021/09/22 10:46:11;;;;;;;2.52;1.50;;;;;;;8.59;70.74;99428.61;1723915;82;21585;-66
2021/09/22 10:48:44;;;;;;;2.05;1.52;;;;;;;8.45;71.17;99433.72;1722944;83;21011;-65
2021/09/22 10:51:11;;;;;;;5.25;1.72;;;;;;;8.44;71.58;99436.15;1723059;83;21039;-66
2021/09/22 10:53:41;;;;;;;2.30;1.32;;;;;;;8.49;71.56;99426.69;1722869;83;21063;-66
2021/09/22 10:56:17;;;;;;;1.87;1.10;;;;;;;8.53;71.58;99428.33;1730658;82;21545;-66
2021/09/22 10:58:52;;;;;;;2.52;1.30;;;;;;;8.49;71.78;99427.23;1748914;82;20964;-66
2021/09/22 11:01:36;;;;;;;2.10;1.30;;;;;;;8.50;71.72;99427.51;1752959;82;21510;-66
2021/09/22 11:04:08;;;;;;;2.80;1.10;;;;;;;8.56;71.55;99430.51;1732036;82;21006;-66
2021/09/22 11:06:48;;;;;;;3.25;1.00;;;;;;;8.64;71.45;99431.36;1735194;82;20978;-67
2021/09/22 11:09:27;;;;;;;1.50;1.00;;;;;;;8.63;71.29;99435.14;1726679;82;21612;-66
2021/09/22 11:12:00;;;;;;;1.70;1.20;;;;;;;8.68;71.37;99424.86;1730147;82;21031;-67
2021/09/22 11:14:36;;;;;;;1.27;0.80;;;;;;;8.71;71.37;99413.47;1718109;83;21108;-67
2021/09/22 11:17:10;;;;;;;1.65;1.05;;;;;;;8.90;70.89;99430.87;1723956;82;20939;-66
2021/09/22 11:19:40;;;;;;;2.83;1.20;;;;;;;8.88;71.02;99429.80;1719878;82;21074;-66
2021/09/22 11:22:18;;;;;;;2.08;1.15;;;;;;;8.86;70.50;99429.23;1716647;83;21031;-66
2021/09/22 11:24:44;;;;;;;1.90;1.30;;;;;;;8.91;70.45;99423.01;1718179;82;21043;-67
2021/09/22 11:27:17;;;;;;;2.27;1.00;;;;;;;8.98;69.66;99428.99;1717632;83;21156;-67
2021/09/22 11:29:53;;;;;;;1.72;1.10;;;;;;;8.94;69.47;99427.89;1718082;82;21098;-66
2021/09/22 11:32:38;;;;;;;1.15;0.88;;;;;;;8.91;69.68;99432.50;1718665;82;21000;-67
2021/09/22 11:35:17;;;;;;;1.20;0.70;;;;;;;8.95;69.36;99423.56;1727179;82;21601;-67
2021/09/22 11:37:56;;;;;;;1.85;1.00;;;;;;;9.08;69.51;99420.04;1722669;82;21486;-67
2021/09/22 11:40:26;;;;;;;1.62;0.90;;;;;;;9.13;69.62;99418.70;1683016;85;21146;-67
2021/09/22 11:43:18;;;;;;;1.37;0.90;;;;;;;9.15;69.54;99419.23;1671221;86;21047;-67
2021/09/22 11:45:52;;;;;;;4.45;1.67;;;;;;;9.11;69.26;99423.57;1717590;83;21027;-67
2021/09/22 11:48:28;;;;;;;2.95;1.10;;;;;;;9.11;69.53;99429.00;1717689;83;21835;-67
2021/09/22 11:50:56;;;;;;;1.98;0.98;;;;;;;9.14;69.51;99414.34;1715564;83;21075;-66
2021/09/22 11:53:30;;;;;;;5.35;0.72;;;;;;;9.10;69.12;99411.92;1717919;82;21011;-67
2021/09/22 11:55:56;;;;;;;1.30;0.80;;;;;;;8.96;69.26;99417.03;1723619;82;21605;-66
2021/09/22 11:58:26;;;;;;;2.08;0.95;;;;;;;8.93;69.25;99413.50;1737577;82;20988;-66
2021/09/22 12:00:57;;;;;;;2.85;0.98;;;;;;;8.92;69.36;99415.96;1729084;82;21531;-67
2021/09/22 12:03:26;;;;;;;2.22;1.02;;;;;;;8.91;69.74;99416.22;1729673;81;21007;-67
2021/09/22 12:06:05;;;;;;;2.20;1.00;;;;;;;8.97;70.08;99418.67;1746973;82;21102;-66
2021/09/22 12:08:33;;;;;;;1.87;0.98;;;;;;;9.03;69.85;99413.27;1735067;82;20955;-67